Time;durP1;ratioP1;P1;durP2;ratioP2;P2;SDS_P1;SDS_P2;PMS_P1;PMS_P2;Temp;Humidity;BMP_temperature;BMP_pressure;BME280_temperature;BME280_humidity;BME280_pressure;Samples;Min_cycle;Max_cycle;Signal;HPM_P1;HPM_P2
2022/11/24 00:01:24;;;;;;;10.57;2.53;;;5.80;98.00;;;;;;5018426;28;20025;-69
2022/11/24 00:03:58;;;;;;;16.10;3.60;;;5.70;98.00;;;;;;5033853;28;20322;-69
2022/11/24 00:06:24;;;;;;;11.38;2.53;;;5.60;98.00;;;;;;5013489;28;20063;-69
2022/11/24 00:08:51;;;;;;;12.68;3.38;;;5.50;97.30;;;;;;5013160;28;20054;-69
2022/11/24 00:11:19;;;;;;;12.23;3.00;;;5.50;97.70;;;;;;5035779;28;20041;-69
2022/11/24 00:13:45;;;;;;;10.93;2.50;;;5.60;98.00;;;;;;5038508;28;20026;-69
2022/11/24 00:16:18;;;;;;;10.27;2.90;;;5.50;97.90;;;;;;5035436;28;20021;-69
2022/11/24 00:18:46;;;;;;;7.55;2.50;;;5.50;97.40;;;;;;5024770;28;20319;-69
2022/11/24 00:21:12;;;;;;;10.93;2.28;;;5.50;97.30;;;;;;5017210;28;20498;-69
2022/11/24 00:23:38;;;;;;;11.82;2.63;;;5.60;97.90;;;;;;5030716;28;20044;-69
2022/11/24 00:26:11;;;;;;;13.60;2.75;;;5.60;97.90;;;;;;5041821;28;20119;-68
2022/11/24 00:28:37;;;;;;;10.13;2.42;;;5.70;98.00;;;;;;5033642;28;20080;-69
2022/11/24 00:31:05;;;;;;;7.93;2.05;;;5.60;98.00;;;;;;5025524;28;20032;-69
2022/11/24 00:33:31;;;;;;;11.70;2.50;;;5.60;98.00;;;;;;5024683;28;20037;-69
2022/11/24 00:35:58;;;;;;;9.85;2.00;;;5.50;97.30;;;;;;5010949;28;20025;-69
2022/11/24 00:38:24;;;;;;;9.98;2.35;;;5.40;96.50;;;;;;5030472;28;20030;-69
2022/11/24 00:40:50;;;;;;;9.25;2.15;;;5.30;96.20;;;;;;5027516;28;20033;-69
2022/11/24 00:43:16;;;;;;;10.13;1.85;;;5.30;95.90;;;;;;5041148;28;20040;-68
2022/11/24 00:45:42;;;;;;;9.80;2.00;;;5.30;95.50;;;;;;5015869;28;20272;-69
2022/11/24 00:48:07;;;;;;;7.10;1.63;;;5.20;94.70;;;;;;5025078;28;20037;-68
2022/11/24 00:50:33;;;;;;;6.32;1.80;;;5.30;95.30;;;;;;5031588;28;20048;-68
2022/11/24 00:52:59;;;;;;;9.20;1.98;;;5.40;95.70;;;;;;5033776;28;20248;-68
2022/11/24 00:55:25;;;;;;;9.77;1.88;;;5.50;96.40;;;;;;5033146;28;20488;-68
2022/11/24 00:57:50;;;;;;;5.72;1.60;;;5.60;96.70;;;;;;5026677;28;20084;-68
2022/11/24 01:00:17;;;;;;;8.18;1.85;;;5.70;97.30;;;;;;5032031;28;20101;-68
2022/11/24 01:02:42;;;;;;;7.10;1.60;;;5.70;97.70;;;;;;5024280;28;20093;-68
2022/11/24 01:05:08;;;;;;;8.35;1.90;;;5.80;98.00;;;;;;5033169;28;20369;-68
2022/11/24 01:07:34;;;;;;;8.55;2.17;;;5.80;98.00;;;;;;5034931;28;20076;-69
2022/11/24 01:10:00;;;;;;;9.35;1.92;;;5.80;98.00;;;;;;5025436;28;20017;-68
2022/11/24 01:12:25;;;;;;;7.03;1.60;;;5.80;98.00;;;;;;5030800;28;20307;-68
2022/11/24 01:14:51;;;;;;;19.35;2.40;;;5.70;98.00;;;;;;5033218;28;20070;-68
2022/11/24 01:17:17;;;;;;;9.95;1.85;;;5.50;97.80;;;;;;5035953;28;20063;-69
2022/11/24 01:19:42;;;;;;;8.60;1.73;;;5.40;96.80;;;;;;5035319;28;20041;-68
2022/11/24 01:22:08;;;;;;;6.53;2.17;;;5.50;96.40;;;;;;5034948;28;20038;-68
2022/11/24 01:24:35;;;;;;;5.38;1.52;;;5.40;96.90;;;;;;5031813;28;20175;-69
2022/11/24 01:27:01;;;;;;;8.25;1.98;;;5.50;96.90;;;;;;5022013;28;20032;-69
2022/11/24 01:29:27;;;;;;;5.32;1.65;;;5.60;97.10;;;;;;5024453;28;20022;-69
2022/11/24 01:31:52;;;;;;;5.25;1.40;;;5.60;98.00;;;;;;5034955;28;20087;-68
2022/11/24 01:34:18;;;;;;;6.07;1.83;;;5.70;98.00;;;;;;5034521;28;20105;-68
2022/11/24 01:36:43;;;;;;;26.77;13.50;;;5.70;98.00;;;;;;5035226;28;20051;-69
2022/11/24 01:39:09;;;;;;;7.43;2.45;;;5.70;98.00;;;;;;5033263;28;20018;-69
2022/11/24 01:41:35;;;;;;;12.18;2.08;;;5.70;98.00;;;;;;5018891;28;20025;-69
2022/11/24 01:44:00;;;;;;;8.45;1.80;;;5.80;98.00;;;;;;5018215;28;20029;-69
2022/11/24 01:46:28;;;;;;;4.63;1.50;;;5.90;98.00;;;;;;5015418;28;20022;-68
2022/11/24 01:49:11;;;;;;;6.38;2.03;;;6.00;98.00;;;;;;5025873;28;20033;-69
2022/11/24 01:51:43;;;;;;;8.55;2.20;;;6.20;98.00;;;;;;5041414;28;20433;-68
2022/11/24 01:54:37;;;;;;;8.23;1.65;;;6.20;98.00;;;;;;5035768;28;20414;-68
2022/11/24 01:57:16;;;;;;;8.23;2.88;;;6.00;98.00;;;;;;5028125;28;20026;-68
2022/11/24 01:59:44;;;;;;;7.35;1.55;;;5.90;98.00;;;;;;5018867;28;20064;-68
2022/11/24 02:02:10;;;;;;;6.13;1.52;;;5.90;98.00;;;;;;5029594;28;20021;-68
2022/11/24 02:04:36;;;;;;;6.63;1.77;;;5.90;98.00;;;;;;5034379;28;20314;-68
2022/11/24 02:07:05;;;;;;;10.82;1.75;;;6.00;98.00;;;;;;5038250;28;20418;-68
2022/11/24 02:09:38;;;;;;;5.07;1.55;;;6.00;98.00;;;;;;5036815;28;20156;-68
2022/11/24 02:12:04;;;;;;;7.83;1.67;;;6.00;98.00;;;;;;5039303;28;20049;-70
2022/11/24 02:14:30;;;;;;;8.63;1.80;;;6.00;98.00;;;;;;5034640;28;20028;-70
2022/11/24 02:16:59;;;;;;;7.88;1.48;;;5.90;98.00;;;;;;5044341;28;20434;-70
2022/11/24 02:19:57;;;;;;;7.55;1.95;;;5.90;98.00;;;;;;5032036;28;20867;-69
2022/11/24 02:22:40;;;;;;;6.78;1.60;;;5.90;98.00;;;;;;4999070;28;20504;-70
2022/11/24 02:25:21;;;;;;;10.90;2.05;;;5.80;98.00;;;;;;5010480;28;20068;-69
2022/11/24 02:27:46;;;;;;;5.97;1.45;;;5.80;98.00;;;;;;5005171;28;20037;-69
2022/11/24 02:30:12;;;;;;;11.88;2.10;;;5.80;98.00;;;;;;5013690;28;20026;-69
2022/11/24 02:32:40;;;;;;;8.27;2.17;;;5.70;98.00;;;;;;5009302;28;20034;-69
2022/11/24 02:35:08;;;;;;;9.52;2.15;;;5.50;98.00;;;;;;5009850;28;20026;-69
2022/11/24 02:37:36;;;;;;;7.53;1.88;;;5.60;98.00;;;;;;5001403;28;20041;-68
2022/11/24 02:40:03;;;;;;;8.68;2.00;;;5.60;98.00;;;;;;5008721;28;20026;-69
2022/11/24 02:42:34;;;;;;;11.90;2.03;;;5.60;98.00;;;;;;5011031;28;20031;-69
2022/11/24 02:45:00;;;;;;;8.52;2.58;;;5.60;98.00;;;;;;5012183;28;20026;-69
2022/11/24 02:47:26;;;;;;;11.25;2.38;;;5.60;98.00;;;;;;5000620;28;20415;-69
2022/11/24 02:49:51;;;;;;;13.23;2.58;;;5.70;98.00;;;;;;5011697;28;20037;-69
2022/11/24 02:52:18;;;;;;;11.07;2.20;;;5.80;98.00;;;;;;4997995;28;21578;-69
2022/11/24 02:54:44;;;;;;;11.95;2.38;;;5.80;98.00;;;;;;5007861;28;20076;-69
2022/11/24 02:57:10;;;;;;;6.25;1.92;;;5.80;98.00;;;;;;4982210;28;20109;-69
2022/11/24 02:59:36;;;;;;;9.43;2.35;;;6.10;98.00;;;;;;5009995;28;20034;-69
2022/11/24 03:02:02;;;;;;;13.63;2.47;;;6.10;98.00;;;;;;5001122;28;20343;-69
2022/11/24 03:04:28;;;;;;;12.25;2.53;;;6.00;98.00;;;;;;5010623;28;20038;-69
2022/11/24 03:06:57;;;;;;;10.88;2.25;;;5.90;98.00;;;;;;5000030;28;20062;-69
2022/11/24 03:09:22;;;;;;;13.77;2.55;;;5.80;98.00;;;;;;5002262;28;20026;-69
2022/11/24 03:11:48;;;;;;;13.68;2.60;;;6.00;98.00;;;;;;4993492;28;20045;-69
2022/11/24 03:14:13;;;;;;;11.32;2.33;;;6.00;98.00;;;;;;5006827;28;20434;-69
2022/11/24 03:16:39;;;;;;;13.50;2.30;;;6.10;98.00;;;;;;4994021;28;20091;-68
2022/11/24 03:19:05;;;;;;;7.57;1.98;;;6.00;98.00;;;;;;5004375;28;20026;-69
2022/11/24 03:21:30;;;;;;;15.52;2.88;;;6.20;98.00;;;;;;4996230;28;20045;-69
2022/11/24 03:23:56;;;;;;;11.60;2.45;;;6.40;98.00;;;;;;5024635;28;20147;-69
2022/11/24 03:26:23;;;;;;;13.77;2.53;;;6.30;98.00;;;;;;5024359;28;20034;-69
2022/11/24 03:28:48;;;;;;;11.85;2.33;;;6.40;98.00;;;;;;5024499;28;20028;-69
2022/11/24 03:31:14;;;;;;;12.50;3.03;;;6.30;98.00;;;;;;5016574;28;20037;-69
2022/11/24 03:33:40;;;;;;;14.65;3.60;;;6.20;98.00;;;;;;5029637;28;20415;-69
2022/11/24 03:36:06;;;;;;;10.63;2.10;;;6.20;98.00;;;;;;5017615;28;20109;-68
2022/11/24 03:38:32;;;;;;;13.75;3.17;;;6.30;98.00;;;;;;5027568;28;20033;-68
2022/11/24 03:41:00;;;;;;;14.52;2.67;;;6.40;98.00;;;;;;5007937;28;20370;-68
2022/11/24 03:43:29;;;;;;;10.48;2.20;;;6.40;98.00;;;;;;5028389;28;20112;-69
2022/11/24 03:45:55;;;;;;;16.50;2.80;;;6.30;98.00;;;;;;5012859;28;20022;-68
2022/11/24 03:48:21;;;;;;;13.77;2.50;;;6.30;98.00;;;;;;5016711;28;20018;-68
2022/11/24 03:51:00;;;;;;;10.30;2.70;;;6.30;98.00;;;;;;5025917;28;20079;-68
2022/11/24 03:53:27;;;;;;;13.13;2.33;;;6.30;98.00;;;;;;5024781;28;20048;-68
2022/11/24 03:55:53;;;;;;;11.40;2.60;;;6.20;98.00;;;;;;5025949;28;20135;-68
2022/11/24 03:58:19;;;;;;;13.52;2.30;;;6.20;98.00;;;;;;5023769;28;20045;-68
2022/11/24 04:00:47;;;;;;;13.20;2.78;;;6.20;98.00;;;;;;5016508;28;20034;-70
2022/11/24 04:03:12;;;;;;;15.43;2.72;;;6.20;98.00;;;;;;5013420;28;20103;-68
2022/11/24 04:05:41;;;;;;;15.00;2.85;;;6.20;98.00;;;;;;5017962;28;20108;-68
2022/11/24 04:08:06;;;;;;;12.40;2.33;;;6.20;98.00;;;;;;5021552;28;20153;-68
2022/11/24 04:10:35;;;;;;;20.33;2.55;;;6.20;98.00;;;;;;5028879;28;20089;-68
2022/11/24 04:13:02;;;;;;;10.55;2.42;;;6.10;98.00;;;;;;5020049;28;20025;-69
2022/11/24 04:15:27;;;;;;;11.35;2.47;;;6.00;98.00;;;;;;5006798;28;20111;-69
2022/11/24 04:17:54;;;;;;;17.83;2.83;;;6.10;98.00;;;;;;5026165;28;20061;-68
2022/11/24 04:20:20;;;;;;;18.40;3.13;;;6.10;98.00;;;;;;5030548;28;20113;-69
2022/11/24 04:22:46;;;;;;;12.38;2.30;;;6.20;98.00;;;;;;5027834;28;20462;-68
2022/11/24 04:25:12;;;;;;;16.67;3.08;;;6.30;98.00;;;;;;5026294;28;20026;-68
2022/11/24 04:27:38;;;;;;;16.95;3.80;;;6.40;98.00;;;;;;5033097;28;20302;-69
2022/11/24 04:30:06;;;;;;;15.07;2.70;;;6.40;98.00;;;;;;5026294;28;20028;-69
2022/11/24 04:32:31;;;;;;;15.43;2.67;;;6.40;98.00;;;;;;5021400;28;20044;-69
2022/11/24 04:34:57;;;;;;;13.38;2.63;;;6.40;98.00;;;;;;5037152;28;20029;-69
2022/11/24 04:37:22;;;;;;;12.52;2.75;;;6.20;98.00;;;;;;5027480;28;20033;-68
2022/11/24 04:39:48;;;;;;;11.02;2.72;;;6.40;98.00;;;;;;5035720;28;20437;-68
2022/11/24 04:42:14;;;;;;;11.80;2.70;;;6.50;98.00;;;;;;5001769;28;20033;-69
2022/11/24 04:44:42;;;;;;;16.38;3.10;;;6.50;98.00;;;;;;5034818;28;20101;-68
2022/11/24 04:47:15;;;;;;;16.50;3.28;;;6.50;98.00;;;;;;5027023;28;20045;-69
2022/11/24 04:49:41;;;;;;;11.10;2.38;;;6.50;98.00;;;;;;5007167;28;20029;-69
2022/11/24 04:52:07;;;;;;;21.20;4.10;;;6.50;98.00;;;;;;5029308;28;20339;-68
2022/11/24 04:54:32;;;;;;;14.18;2.30;;;6.50;98.00;;;;;;5022254;28;20037;-68
2022/11/24 04:56:58;;;;;;;13.15;2.55;;;6.50;98.00;;;;;;5033790;28;20026;-68
2022/11/24 04:59:23;;;;;;;16.33;2.78;;;6.50;98.00;;;;;;5034071;28;20049;-68
2022/11/24 05:01:49;;;;;;;15.38;2.50;;;6.50;98.00;;;;;;5031659;28;20487;-68
2022/11/24 05:04:15;;;;;;;22.73;3.20;;;6.50;98.00;;;;;;5034501;28;20112;-68
2022/11/24 05:06:43;;;;;;;16.98;3.72;;;6.40;98.00;;;;;;5022815;28;20024;-69
2022/11/24 05:09:13;;;;;;;13.57;2.42;;;6.40;98.00;;;;;;5014378;28;20089;-69
2022/11/24 05:11:38;;;;;;;18.15;3.47;;;6.50;98.00;;;;;;5014543;28;20395;-69
2022/11/24 05:14:04;;;;;;;21.35;4.03;;;6.50;98.00;;;;;;5028123;28;20060;-69
2022/11/24 05:16:30;;;;;;;25.52;3.50;;;6.60;98.00;;;;;;5029409;28;20611;-68
2022/11/24 05:18:55;;;;;;;11.50;2.80;;;6.60;98.00;;;;;;5033592;28;20418;-69
2022/11/24 05:21:21;;;;;;;17.25;2.60;;;6.50;98.00;;;;;;5033566;28;20048;-69
2022/11/24 05:23:46;;;;;;;18.85;3.13;;;6.50;98.00;;;;;;5037097;28;20038;-68
2022/11/24 05:26:12;;;;;;;16.13;3.08;;;6.50;98.00;;;;;;5030105;28;20112;-69
2022/11/24 05:28:37;;;;;;;25.88;3.97;;;6.50;98.00;;;;;;5026826;28;20453;-68
2022/11/24 05:31:03;;;;;;;16.50;3.50;;;6.60;98.00;;;;;;5020666;28;20077;-68
2022/11/24 05:33:32;;;;;;;16.25;3.55;;;6.70;97.70;;;;;;5027372;28;20033;-68
2022/11/24 05:36:05;;;;;;;23.70;4.13;;;6.80;97.30;;;;;;5044709;28;20029;-69
2022/11/24 05:38:32;;;;;;;20.88;3.15;;;6.80;97.20;;;;;;5011970;28;20021;-69
2022/11/24 05:41:04;;;;;;;23.60;3.50;;;6.80;97.40;;;;;;5032513;28;20395;-69
2022/11/24 05:43:29;;;;;;;21.35;4.05;;;6.80;97.60;;;;;;5018138;28;20030;-68
2022/11/24 05:46:00;;;;;;;21.27;4.75;;;6.70;97.70;;;;;;5032144;28;20410;-68
2022/11/24 05:48:26;;;;;;;21.80;3.95;;;6.60;97.90;;;;;;5036244;28;20026;-68
2022/11/24 05:50:56;;;;;;;18.08;4.47;;;6.70;97.90;;;;;;5031205;28;20035;-68
2022/11/24 05:53:22;;;;;;;21.05;4.80;;;6.70;98.00;;;;;;5023080;28;20038;-69
2022/11/24 05:55:48;;;;;;;17.50;5.22;;;6.60;98.00;;;;;;5027791;28;20028;-69
2022/11/24 05:58:14;;;;;;;19.40;4.63;;;6.60;98.00;;;;;;5022912;28;20018;-69
2022/11/24 06:00:39;;;;;;;19.63;4.90;;;6.40;98.00;;;;;;5030427;28;20029;-68
2022/11/24 06:03:08;;;;;;;23.20;5.40;;;6.40;98.00;;;;;;5022125;28;20411;-68
2022/11/24 06:05:33;;;;;;;21.80;4.70;;;6.40;98.00;;;;;;5041228;28;20021;-68
2022/11/24 06:07:59;;;;;;;17.30;3.92;;;6.50;98.00;;;;;;5033744;28;20018;-68
2022/11/24 06:10:25;;;;;;;20.77;3.28;;;6.60;98.00;;;;;;5030717;28;20063;-69
2022/11/24 06:12:51;;;;;;;26.25;4.22;;;6.50;98.00;;;;;;5016142;28;20133;-69
2022/11/24 06:15:17;;;;;;;15.13;3.15;;;6.50;98.00;;;;;;5023838;28;20057;-68
2022/11/24 06:17:43;;;;;;;19.33;3.45;;;6.60;98.00;;;;;;5028652;28;20061;-69
2022/11/24 06:20:09;;;;;;;17.33;3.38;;;6.60;98.00;;;;;;5034008;28;20067;-68
2022/11/24 06:22:35;;;;;;;14.75;2.97;;;6.50;98.00;;;;;;5034548;28;20426;-68
2022/11/24 06:25:01;;;;;;;12.65;3.03;;;6.40;98.00;;;;;;5026841;28;20026;-68
2022/11/24 06:27:27;;;;;;;18.38;2.92;;;6.30;98.00;;;;;;5018791;28;20335;-68
2022/11/24 06:29:52;;;;;;;23.88;4.68;;;6.30;98.00;;;;;;5026825;28;20234;-69
2022/11/24 06:32:18;;;;;;;18.23;3.70;;;6.20;98.00;;;;;;5029926;28;20030;-68
2022/11/24 06:34:44;;;;;;;17.27;3.13;;;6.20;98.00;;;;;;5011060;28;20036;-69
2022/11/24 06:37:10;;;;;;;17.98;3.10;;;6.30;98.00;;;;;;5038425;28;20060;-68
2022/11/24 06:39:36;;;;;;;18.92;3.25;;;6.30;98.00;;;;;;5036197;28;20060;-68
2022/11/24 06:42:03;;;;;;;22.13;3.15;;;6.50;98.00;;;;;;5011975;28;20072;-68
2022/11/24 06:44:28;;;;;;;26.52;5.47;;;6.70;98.00;;;;;;5020730;28;20326;-69
2022/11/24 06:46:54;;;;;;;20.98;3.88;;;6.80;98.00;;;;;;5031679;28;20033;-68
2022/11/24 06:49:19;;;;;;;15.77;3.53;;;7.00;98.00;;;;;;5034161;28;20112;-68
2022/11/24 06:51:45;;;;;;;19.25;3.40;;;7.00;98.00;;;;;;5026748;28;20030;-69
2022/11/24 06:54:16;;;;;;;19.05;3.53;;;7.00;98.00;;;;;;5034046;28;20432;-68
2022/11/24 06:56:42;;;;;;;15.25;2.65;;;7.20;98.00;;;;;;5026959;28;20021;-69
2022/11/24 06:59:17;;;;;;;21.10;3.35;;;7.20;98.00;;;;;;5031172;28;20040;-69
2022/11/24 07:01:43;;;;;;;14.77;3.15;;;7.30;97.80;;;;;;5036662;28;20088;-69
2022/11/24 07:04:10;;;;;;;16.98;2.88;;;7.30;97.90;;;;;;5034702;28;20033;-68
2022/11/24 07:06:35;;;;;;;13.77;2.90;;;7.30;97.90;;;;;;5032980;28;20028;-69
2022/11/24 07:09:01;;;;;;;11.85;2.28;;;7.30;97.90;;;;;;5048866;28;20033;-69
2022/11/24 07:11:27;;;;;;;18.83;3.25;;;7.30;97.90;;;;;;5058413;28;20025;-69
2022/11/24 07:13:52;;;;;;;18.52;3.92;;;7.40;97.60;;;;;;5036657;28;20033;-69
2022/11/24 07:16:23;;;;;;;13.95;3.10;;;7.50;97.70;;;;;;5037496;28;20080;-69
2022/11/24 07:18:51;;;;;;;14.15;3.03;;;7.50;97.60;;;;;;5037256;28;20014;-69
2022/11/24 07:21:18;;;;;;;20.65;3.40;;;7.50;97.70;;;;;;5033688;28;20022;-70
2022/11/24 07:23:47;;;;;;;21.25;3.47;;;7.50;97.80;;;;;;5036927;28;20437;-69
2022/11/24 07:26:12;;;;;;;18.20;2.85;;;7.50;98.00;;;;;;5034392;28;20033;-69
2022/11/24 07:28:38;;;;;;;18.63;3.60;;;7.30;98.00;;;;;;5026731;28;20037;-69
2022/11/24 07:31:06;;;;;;;17.85;3.30;;;7.10;98.00;;;;;;5032865;28;20437;-69
2022/11/24 07:33:31;;;;;;;13.93;3.15;;;7.00;98.00;;;;;;5026769;28;20030;-69
2022/11/24 07:35:59;;;;;;;17.10;3.70;;;6.90;98.00;;;;;;5021339;28;20084;-69
2022/11/24 07:38:25;;;;;;;17.83;3.53;;;6.70;98.00;;;;;;5018266;28;20076;-70
2022/11/24 07:40:50;;;;;;;26.50;6.03;;;6.60;98.00;;;;;;5029215;28;20029;-70
2022/11/24 07:43:19;;;;;;;17.23;3.22;;;6.50;98.00;;;;;;5035373;28;20043;-70
2022/11/24 07:45:51;;;;;;;15.82;2.85;;;6.40;98.00;;;;;;5026175;28;20030;-70
2022/11/24 07:48:16;;;;;;;16.35;3.50;;;6.30;98.00;;;;;;5019147;28;20102;-69
2022/11/24 07:50:42;;;;;;;15.25;3.20;;;6.20;98.00;;;;;;5034992;28;20034;-70
2022/11/24 07:53:08;;;;;;;16.00;3.15;;;6.10;98.00;;;;;;5056008;28;20090;-69
2022/11/24 07:55:33;;;;;;;10.13;2.42;;;6.10;98.00;;;;;;5046209;28;20032;-69
2022/11/24 07:58:00;;;;;;;17.70;3.47;;;6.10;98.00;;;;;;5038047;28;20049;-69
2022/11/24 08:00:26;;;;;;;16.45;5.15;;;6.00;97.80;;;;;;5045177;28;20050;-69
2022/11/24 08:02:52;;;;;;;12.63;2.90;;;5.90;96.80;;;;;;5054288;28;20025;-71
2022/11/24 08:05:18;;;;;;;18.00;4.05;;;6.00;96.90;;;;;;5009521;28;20361;-71
2022/11/24 08:07:44;;;;;;;10.93;3.50;;;5.90;95.90;;;;;;5005037;28;20117;-71
2022/11/24 08:10:09;;;;;;;16.92;5.07;;;5.90;93.00;;;;;;5018897;28;20033;-70
2022/11/24 08:12:35;;;;;;;14.65;4.30;;;5.80;91.80;;;;;;5017945;28;20034;-70
2022/11/24 08:15:00;;;;;;;15.90;3.28;;;5.70;89.50;;;;;;5016441;28;20080;-70
2022/11/24 08:17:27;;;;;;;11.98;3.33;;;5.60;89.20;;;;;;5017671;28;20029;-70
2022/11/24 08:19:53;;;;;;;16.65;3.50;;;5.60;89.10;;;;;;5018492;28;20316;-71
2022/11/24 08:22:19;;;;;;;15.18;3.33;;;5.50;86.80;;;;;;5036523;28;20041;-69
2022/11/24 08:24:47;;;;;;;11.77;4.13;;;5.40;86.60;;;;;;5037504;28;20561;-69
2022/11/24 08:27:14;;;;;;;17.02;3.58;;;5.40;85.30;;;;;;5019571;28;20025;-69
2022/11/24 08:29:40;;;;;;;12.60;3.75;;;5.30;84.60;;;;;;5036018;28;20050;-69
2022/11/24 08:32:06;;;;;;;12.18;2.80;;;5.30;84.00;;;;;;5037232;28;20026;-69
2022/11/24 08:34:32;;;;;;;9.80;2.80;;;5.20;85.20;;;;;;5037008;28;20029;-69
2022/11/24 08:36:57;;;;;;;10.30;2.20;;;5.20;88.50;;;;;;5015533;28;20490;-69
2022/11/24 08:39:23;;;;;;;7.13;2.13;;;5.20;91.00;;;;;;5030891;28;20026;-69
2022/11/24 08:41:48;;;;;;;11.80;2.63;;;5.20;90.10;;;;;;5019456;28;20082;-69
2022/11/24 08:44:16;;;;;;;8.48;2.42;;;5.10;88.40;;;;;;5035098;28;20113;-69
2022/11/24 08:46:43;;;;;;;9.32;1.92;;;5.10;88.30;;;;;;5036768;28;20034;-69
2022/11/24 08:49:09;;;;;;;9.93;2.30;;;5.10;88.00;;;;;;5036978;28;20025;-70
2022/11/24 08:51:35;;;;;;;12.93;2.92;;;5.00;86.40;;;;;;5036583;28;20033;-69
2022/11/24 08:54:00;;;;;;;6.65;1.90;;;5.10;85.50;;;;;;5036727;28;20029;-69
2022/11/24 08:56:28;;;;;;;8.15;2.38;;;5.10;87.90;;;;;;5017619;28;20037;-69
2022/11/24 08:58:54;;;;;;;8.68;2.17;;;5.10;86.90;;;;;;5035413;28;20156;-69
2022/11/24 09:01:23;;;;;;;4.47;1.63;;;5.10;87.60;;;;;;5019234;28;20404;-69
2022/11/24 09:03:50;;;;;;;9.18;3.58;;;5.20;89.10;;;;;;5036629;28;20386;-69
2022/11/24 09:06:17;;;;;;;7.85;2.70;;;5.30;90.60;;;;;;5036365;28;20326;-69
2022/11/24 09:08:42;;;;;;;10.50;2.85;;;5.40;90.80;;;;;;5036549;28;20037;-69
2022/11/24 09:11:13;;;;;;;7.95;2.35;;;5.40;90.70;;;;;;5035389;28;20037;-69
2022/11/24 09:13:39;;;;;;;7.32;2.00;;;5.40;91.90;;;;;;5036426;28;20025;-69
2022/11/24 09:16:13;;;;;;;5.72;1.88;;;5.40;89.70;;;;;;5035085;28;20021;-69
2022/11/24 09:18:39;;;;;;;5.60;1.83;;;5.50;91.10;;;;;;5036341;28;20017;-69
2022/11/24 09:21:23;;;;;;;5.85;1.77;;;5.50;90.70;;;;;;5036146;28;20030;-69
2022/11/24 09:23:50;;;;;;;5.50;1.63;;;5.70;89.80;;;;;;5051777;28;20033;-69
2022/11/24 09:26:22;;;;;;;4.35;1.30;;;5.70;93.70;;;;;;5035065;28;20041;-69
2022/11/24 09:28:53;;;;;;;3.58;1.20;;;5.70;93.00;;;;;;5035412;28;20044;-69
2022/11/24 09:31:20;;;;;;;4.22;1.00;;;5.70;93.70;;;;;;5036093;28;20087;-70
2022/11/24 09:33:46;;;;;;;4.63;1.30;;;5.70;94.50;;;;;;5035883;28;20121;-68
2022/11/24 09:36:12;;;;;;;3.88;1.30;;;5.60;92.70;;;;;;5036010;28;20057;-68
2022/11/24 09:38:41;;;;;;;4.68;1.30;;;5.70;92.20;;;;;;5035891;28;20021;-70
2022/11/24 09:41:38;;;;;;;5.38;1.73;;;5.80;96.60;;;;;;5022511;28;20062;-68
2022/11/24 09:44:54;;;;;;;16.98;6.72;;;5.70;94.90;;;;;;5015640;28;20049;-69
2022/11/24 09:47:44;;;;;;;7.07;2.17;;;5.60;93.10;;;;;;5007116;28;20046;-69
2022/11/24 09:50:17;;;;;;;15.50;6.15;;;5.50;92.90;;;;;;5016161;28;20427;-69
2022/11/24 09:52:46;;;;;;;8.25;3.10;;;5.50;90.80;;;;;;5016131;28;20370;-69
2022/11/24 09:55:39;;;;;;;5.28;2.10;;;5.70;91.30;;;;;;5015892;28;20390;-69
2022/11/24 09:58:29;;;;;;;5.03;2.10;;;6.00;93.30;;;;;;5015960;28;20411;-69
2022/11/24 10:00:56;;;;;;;5.88;1.70;;;6.20;94.70;;;;;;5034047;28;20116;-69
2022/11/24 10:03:37;;;;;;;9.38;3.58;;;6.20;94.00;;;;;;5035836;28;20068;-69
2022/11/24 10:06:30;;;;;;;4.00;1.50;;;6.30;94.90;;;;;;5035619;28;20026;-69
2022/11/24 10:09:13;;;;;;;3.70;1.02;;;6.20;96.10;;;;;;5035463;28;20388;-69
2022/11/24 10:12:12;;;;;;;2.97;1.17;;;6.20;95.10;;;;;;5035849;28;20032;-69
2022/11/24 10:15:21;;;;;;;4.63;2.00;;;6.20;93.80;;;;;;5036887;28;20025;-68
2022/11/24 10:18:18;;;;;;;3.78;1.23;;;7.30;92.20;;;;;;5011588;28;20038;-69
2022/11/24 10:20:50;;;;;;;4.90;2.40;;;8.30;98.00;;;;;;5031238;28;20022;-69
2022/11/24 10:23:39;;;;;;;4.82;1.75;;;9.00;98.00;;;;;;5015722;28;20045;-68
2022/11/24 10:26:17;;;;;;;4.70;1.67;;;9.20;98.00;;;;;;5016494;28;20049;-69
2022/11/24 10:29:08;;;;;;;4.18;1.65;;;10.10;98.00;;;;;;5019441;28;20117;-69
2022/11/24 10:31:42;;;;;;;5.05;1.92;;;10.50;96.40;;;;;;5011235;28;20092;-70
2022/11/24 10:34:17;;;;;;;3.50;1.10;;;10.50;96.60;;;;;;5019605;28;20033;-69
2022/11/24 10:37:03;;;;;;;5.03;1.45;;;9.60;94.80;;;;;;5019463;28;20111;-69
2022/11/24 10:39:45;;;;;;;6.28;1.33;;;8.80;98.00;;;;;;5019461;28;20028;-68
2022/11/24 10:42:30;;;;;;;5.63;1.60;;;7.90;98.00;;;;;;5019417;28;20014;-69
2022/11/24 10:45:00;;;;;;;12.82;3.92;;;7.70;98.00;;;;;;5018109;28;20038;-68
2022/11/24 10:47:26;;;;;;;7.25;2.00;;;7.60;98.00;;;;;;5001907;28;20041;-68
2022/11/24 10:50:01;;;;;;;9.35;1.95;;;7.70;98.00;;;;;;5019270;28;20430;-68
2022/11/24 10:52:29;;;;;;;7.93;1.73;;;7.70;98.00;;;;;;5019317;28;20026;-67
2022/11/24 10:54:57;;;;;;;6.07;1.80;;;7.70;98.00;;;;;;5001636;28;20026;-67
2022/11/24 10:57:37;;;;;;;6.07;1.67;;;7.60;98.00;;;;;;5019128;28;20028;-69
2022/11/24 11:00:23;;;;;;;8.90;2.10;;;7.70;98.00;;;;;;5018053;28;20030;-69
2022/11/24 11:03:08;;;;;;;6.10;1.83;;;7.90;98.00;;;;;;5001707;28;20164;-69
2022/11/24 11:05:43;;;;;;;10.88;2.10;;;8.00;98.00;;;;;;5020260;28;20109;-70
2022/11/24 11:08:19;;;;;;;10.63;2.40;;;8.10;98.00;;;;;;5018931;28;20022;-69
2022/11/24 11:10:46;;;;;;;8.23;1.80;;;8.00;98.00;;;;;;5018998;28;20037;-69
2022/11/24 11:13:22;;;;;;;8.20;2.13;;;7.90;98.00;;;;;;5018629;28;20038;-68
2022/11/24 11:15:48;;;;;;;8.48;2.38;;;8.20;98.00;;;;;;5000424;28;20450;-69
2022/11/24 11:18:16;;;;;;;11.75;2.35;;;8.40;98.00;;;;;;5018958;28;20022;-68
2022/11/24 11:20:50;;;;;;;8.88;1.70;;;9.20;98.00;;;;;;5019252;28;20037;-69
2022/11/24 11:23:27;;;;;;;10.82;2.20;;;9.60;98.00;;;;;;5038328;28;20049;-68
2022/11/24 11:26:23;;;;;;;5.05;1.70;;;10.20;96.50;;;;;;5038650;28;20036;-70
2022/11/24 11:29:07;;;;;;;10.25;1.90;;;10.50;94.70;;;;;;5037285;28;20075;-69
2022/11/24 11:31:37;;;;;;;10.07;2.42;;;10.30;95.10;;;;;;5038436;28;20333;-68
2022/11/24 11:34:08;;;;;;;7.13;2.20;;;10.30;95.70;;;;;;5031010;28;20038;-69
2022/11/24 11:36:39;;;;;;;7.75;2.17;;;10.50;96.00;;;;;;5018451;28;20026;-69
2022/11/24 11:39:12;;;;;;;7.57;2.00;;;10.60;95.50;;;;;;5017289;28;20043;-68
2022/11/24 11:41:44;;;;;;;8.82;2.22;;;10.60;93.80;;;;;;5033864;28;20454;-69
2022/11/24 11:44:33;;;;;;;8.23;2.10;;;10.30;95.50;;;;;;5017265;28;20291;-69
2022/11/24 11:47:04;;;;;;;7.78;2.30;;;10.30;95.70;;;;;;5018260;28;20030;-68
2022/11/24 11:49:29;;;;;;;7.60;2.05;;;10.50;95.40;;;;;;5009938;28;20331;-69
2022/11/24 11:52:04;;;;;;;9.65;2.42;;;10.40;94.20;;;;;;5018336;28;20026;-69
2022/11/24 11:54:32;;;;;;;7.13;2.13;;;10.10;94.50;;;;;;5018147;28;20030;-69
2022/11/24 11:57:10;;;;;;;7.50;2.30;;;10.30;95.00;;;;;;5018056;28;20450;-69
2022/11/24 12:00:02;;;;;;;11.45;2.72;;;10.60;93.90;;;;;;4931801;28;20045;-69
2022/11/24 12:02:49;;;;;;;10.00;2.60;;;10.60;92.80;;;;;;5016171;28;20069;-69
2022/11/24 12:05:34;;;;;;;10.45;2.20;;;10.30;93.10;;;;;;5017895;28;20386;-69
2022/11/24 12:08:26;;;;;;;9.10;1.70;;;10.20;95.40;;;;;;5017610;28;20025;-68
2022/11/24 12:11:13;;;;;;;10.32;2.25;;;10.30;93.70;;;;;;5017840;28;20415;-68
2022/11/24 12:14:09;;;;;;;11.32;2.78;;;10.10;92.80;;;;;;5017712;28;20022;-69
2022/11/24 12:17:06;;;;;;;10.82;2.75;;;10.10;94.20;;;;;;5017706;28;20033;-68
2022/11/24 12:19:31;;;;;;;8.98;2.70;;;10.20;94.00;;;;;;5025195;28;20025;-69
2022/11/24 12:22:12;;;;;;;11.45;3.17;;;9.80;93.70;;;;;;5039576;28;20038;-68
2022/11/24 12:24:49;;;;;;;11.20;3.13;;;9.20;95.50;;;;;;5017516;28;20026;-68
2022/11/24 12:27:26;;;;;;;11.50;3.10;;;8.80;96.50;;;;;;5017461;28;20032;-68
2022/11/24 12:30:19;;;;;;;13.48;2.97;;;8.80;96.80;;;;;;5016358;28;20029;-69
2022/11/24 12:32:57;;;;;;;13.63;3.63;;;8.80;96.40;;;;;;5017507;28;20022;-68
2022/11/24 12:35:40;;;;;;;11.23;2.88;;;8.80;96.10;;;;;;5017587;28;20033;-68
2022/11/24 12:38:43;;;;;;;11.32;3.05;;;9.30;95.40;;;;;;5017371;28;20014;-68
2022/11/24 12:41:14;;;;;;;8.93;2.38;;;9.50;94.90;;;;;;5017210;28;20018;-68
2022/11/24 12:43:48;;;;;;;10.23;2.92;;;10.10;93.50;;;;;;5032796;28;20049;-68
2022/11/24 12:46:41;;;;;;;12.00;2.50;;;9.90;92.70;;;;;;5017218;28;20021;-69
2022/11/24 12:49:21;;;;;;;9.57;2.70;;;9.60;93.30;;;;;;5016898;28;20326;-69
2022/11/24 12:51:56;;;;;;;9.05;2.85;;;9.40;94.10;;;;;;5016899;28;20025;-68
2022/11/24 12:54:23;;;;;;;10.35;3.05;;;9.20;95.20;;;;;;5017143;28;20477;-68
2022/11/24 12:57:11;;;;;;;9.38;2.70;;;9.10;94.30;;;;;;5018118;28;20117;-68
2022/11/24 13:00:04;;;;;;;10.20;3.25;;;8.80;94.40;;;;;;5035579;28;20022;-68
2022/11/24 13:02:56;;;;;;;8.38;2.90;;;8.50;95.90;;;;;;5036608;28;20382;-68
2022/11/24 13:05:43;;;;;;;9.45;2.60;;;8.60;96.00;;;;;;5036578;28;20029;-68
2022/11/24 13:08:09;;;;;;;12.80;3.47;;;8.70;96.00;;;;;;5036567;28;20284;-69